sensor_id;sensor_type;location;lat;lon;timestamp;temperature;humidity
23114;DHT22;11726;50.122;8.832;2022-10-31T00:00:54;11.30;99.90
23114;DHT22;11726;50.122;8.832;2022-10-31T00:03:21;11.20;99.90
23114;DHT22;11726;50.122;8.832;2022-10-31T00:05:49;11.30;99.90
23114;DHT22;11726;50.122;8.832;2022-10-31T00:08:17;11.10;99.90
23114;DHT22;11726;50.122;8.832;2022-10-31T00:10:44;11.30;99.90
23114;DHT22;11726;50.122;8.832;2022-10-31T00:13:13;11.20;99.90
23114;DHT22;11726;50.122;8.832;2022-10-31T00:15:40;11.20;99.90
23114;DHT22;11726;50.122;8.832;2022-10-31T00:18:08;11.20;99.90
23114;DHT22;11726;50.122;8.832;2022-10-31T00:20:35;11.20;99.90
23114;DHT22;11726;50.122;8.832;2022-10-31T00:23:03;11.10;99.90
23114;DHT22;11726;50.122;8.832;2022-10-31T00:25:34;11.00;99.90
23114;DHT22;11726;50.122;8.832;2022-10-31T00:28:03;10.90;99.90
23114;DHT22;11726;50.122;8.832;2022-10-31T00:30:29;11.00;99.90
23114;DHT22;11726;50.122;8.832;2022-10-31T00:32:56;10.90;99.90
23114;DHT22;11726;50.122;8.832;2022-10-31T00:35:23;10.90;99.90
23114;DHT22;11726;50.122;8.832;2022-10-31T00:37:51;11.00;99.90
23114;DHT22;11726;50.122;8.832;2022-10-31T00:40:18;11.00;99.90
23114;DHT22;11726;50.122;8.832;2022-10-31T00:42:44;11.00;99.90
23114;DHT22;11726;50.122;8.832;2022-10-31T00:45:11;11.00;99.90
23114;DHT22;11726;50.122;8.832;2022-10-31T00:47:38;11.00;99.90
23114;DHT22;11726;50.122;8.832;2022-10-31T00:50:05;10.90;99.90
23114;DHT22;11726;50.122;8.832;2022-10-31T00:52:32;10.90;99.90
23114;DHT22;11726;50.122;8.832;2022-10-31T00:54:59;10.90;99.90
23114;DHT22;11726;50.122;8.832;2022-10-31T00:57:25;10.90;99.90
23114;DHT22;11726;50.122;8.832;2022-10-31T00:59:52;11.00;99.90
23114;DHT22;11726;50.122;8.832;2022-10-31T01:02:19;11.10;99.90
23114;DHT22;11726;50.122;8.832;2022-10-31T01:04:46;11.10;99.90
23114;DHT22;11726;50.122;8.832;2022-10-31T01:07:12;11.10;99.90
23114;DHT22;11726;50.122;8.832;2022-10-31T01:09:40;11.20;99.90
23114;DHT22;11726;50.122;8.832;2022-10-31T01:12:07;11.10;99.90
23114;DHT22;11726;50.122;8.832;2022-10-31T01:14:34;11.20;99.90
23114;DHT22;11726;50.122;8.832;2022-10-31T01:17:01;11.10;99.90
23114;DHT22;11726;50.122;8.832;2022-10-31T01:19:27;11.00;99.90
23114;DHT22;11726;50.122;8.832;2022-10-31T01:21:54;11.00;99.90
23114;DHT22;11726;50.122;8.832;2022-10-31T01:24:22;11.00;99.90
23114;DHT22;11726;50.122;8.832;2022-10-31T01:26:48;11.00;99.90
23114;DHT22;11726;50.122;8.832;2022-10-31T01:29:15;11.00;99.90
23114;DHT22;11726;50.122;8.832;2022-10-31T01:31:41;11.00;99.90
23114;DHT22;11726;50.122;8.832;2022-10-31T01:34:13;10.90;99.90
23114;DHT22;11726;50.122;8.832;2022-10-31T01:36:41;10.90;99.90
23114;DHT22;11726;50.122;8.832;2022-10-31T01:39:14;10.90;99.90
23114;DHT22;11726;50.122;8.832;2022-10-31T01:41:43;10.80;99.90
23114;DHT22;11726;50.122;8.832;2022-10-31T01:46:53;10.70;99.90
23114;DHT22;11726;50.122;8.832;2022-10-31T01:49:36;10.70;99.90
23114;DHT22;11726;50.122;8.832;2022-10-31T01:52:29;10.70;99.90
23114;DHT22;11726;50.122;8.832;2022-10-31T01:55:01;10.60;99.90
23114;DHT22;11726;50.122;8.832;2022-10-31T01:57:31;10.60;99.90
23114;DHT22;11726;50.122;8.832;2022-10-31T02:00:00;10.60;99.90
23114;DHT22;11726;50.122;8.832;2022-10-31T02:02:30;10.60;99.90
23114;DHT22;11726;50.122;8.832;2022-10-31T02:04:57;10.50;99.90
23114;DHT22;11726;50.122;8.832;2022-10-31T02:07:34;10.40;99.90
23114;DHT22;11726;50.122;8.832;2022-10-31T02:10:03;10.40;99.90
23114;DHT22;11726;50.122;8.832;2022-10-31T02:12:31;10.40;99.90
23114;DHT22;11726;50.122;8.832;2022-10-31T02:14:59;10.40;99.90
23114;DHT22;11726;50.122;8.832;2022-10-31T02:17:26;10.40;99.90
23114;DHT22;11726;50.122;8.832;2022-10-31T02:20:17;10.50;99.90
23114;DHT22;11726;50.122;8.832;2022-10-31T02:28:41;10.50;99.90
23114;DHT22;11726;50.122;8.832;2022-10-31T02:31:35;10.50;99.90
23114;DHT22;11726;50.122;8.832;2022-10-31T02:34:17;10.50;99.90
23114;DHT22;11726;50.122;8.832;2022-10-31T02:37:02;10.60;99.90
23114;DHT22;11726;50.122;8.832;2022-10-31T02:39:51;10.50;99.90
23114;DHT22;11726;50.122;8.832;2022-10-31T02:42:32;10.50;99.90
23114;DHT22;11726;50.122;8.832;2022-10-31T02:45:29;10.60;99.90
23114;DHT22;11726;50.122;8.832;2022-10-31T02:48:02;10.60;99.90
23114;DHT22;11726;50.122;8.832;2022-10-31T02:50:35;10.60;99.90
23114;DHT22;11726;50.122;8.832;2022-10-31T02:53:03;10.60;99.90
23114;DHT22;11726;50.122;8.832;2022-10-31T02:58:04;10.60;99.90
23114;DHT22;11726;50.122;8.832;2022-10-31T03:00:38;10.50;99.90
23114;DHT22;11726;50.122;8.832;2022-10-31T03:06:09;10.50;99.90
23114;DHT22;11726;50.122;8.832;2022-10-31T03:12:06;10.60;99.90
23114;DHT22;11726;50.122;8.832;2022-10-31T03:18:09;10.50;99.90
23114;DHT22;11726;50.122;8.832;2022-10-31T03:21:13;10.50;99.90
23114;DHT22;11726;50.122;8.832;2022-10-31T03:23:32;10.50;99.90
23114;DHT22;11726;50.122;8.832;2022-10-31T03:26:02;10.50;99.90
23114;DHT22;11726;50.122;8.832;2022-10-31T03:28:48;10.40;99.90
23114;DHT22;11726;50.122;8.832;2022-10-31T03:31:17;10.40;99.90
23114;DHT22;11726;50.122;8.832;2022-10-31T03:33:45;10.50;99.90
23114;DHT22;11726;50.122;8.832;2022-10-31T03:36:14;10.50;99.90
23114;DHT22;11726;50.122;8.832;2022-10-31T03:38:42;10.50;99.90
23114;DHT22;11726;50.122;8.832;2022-10-31T03:41:16;10.60;99.90
23114;DHT22;11726;50.122;8.832;2022-10-31T03:43:49;10.60;99.90
23114;DHT22;11726;50.122;8.832;2022-10-31T03:46:18;10.60;99.90
23114;DHT22;11726;50.122;8.832;2022-10-31T03:48:45;10.50;99.90
23114;DHT22;11726;50.122;8.832;2022-10-31T03:51:39;10.50;99.90
23114;DHT22;11726;50.122;8.832;2022-10-31T03:54:33;10.60;99.90
23114;DHT22;11726;50.122;8.832;2022-10-31T03:57:27;10.60;99.90
23114;DHT22;11726;50.122;8.832;2022-10-31T04:00:03;10.50;99.90
23114;DHT22;11726;50.122;8.832;2022-10-31T04:02:32;10.60;99.90
23114;DHT22;11726;50.122;8.832;2022-10-31T04:05:00;10.60;99.90
23114;DHT22;11726;50.122;8.832;2022-10-31T04:07:31;10.60;99.90
23114;DHT22;11726;50.122;8.832;2022-10-31T04:10:01;10.60;99.90
23114;DHT22;11726;50.122;8.832;2022-10-31T04:12:29;10.70;99.90
23114;DHT22;11726;50.122;8.832;2022-10-31T04:14:57;10.70;99.90
23114;DHT22;11726;50.122;8.832;2022-10-31T04:17:27;10.60;99.90
23114;DHT22;11726;50.122;8.832;2022-10-31T04:19:58;10.60;99.90
23114;DHT22;11726;50.122;8.832;2022-10-31T04:22:24;10.60;99.90
23114;DHT22;11726;50.122;8.832;2022-10-31T04:24:51;10.60;99.90
23114;DHT22;11726;50.122;8.832;2022-10-31T04:27:18;10.60;99.90
23114;DHT22;11726;50.122;8.832;2022-10-31T04:29:44;10.60;99.90
23114;DHT22;11726;50.122;8.832;2022-10-31T04:32:16;10.60;99.90
23114;DHT22;11726;50.122;8.832;2022-10-31T04:34:42;10.60;99.90
23114;DHT22;11726;50.122;8.832;2022-10-31T04:37:09;10.60;99.90
23114;DHT22;11726;50.122;8.832;2022-10-31T04:39:36;10.60;99.90
23114;DHT22;11726;50.122;8.832;2022-10-31T04:42:02;10.60;99.90
23114;DHT22;11726;50.122;8.832;2022-10-31T04:44:29;10.50;99.90
23114;DHT22;11726;50.122;8.832;2022-10-31T04:46:55;10.60;99.90
23114;DHT22;11726;50.122;8.832;2022-10-31T04:49:23;10.60;99.90
23114;DHT22;11726;50.122;8.832;2022-10-31T04:51:50;10.60;99.90
23114;DHT22;11726;50.122;8.832;2022-10-31T04:54:16;10.50;99.90
23114;DHT22;11726;50.122;8.832;2022-10-31T04:56:43;10.50;99.90
23114;DHT22;11726;50.122;8.832;2022-10-31T04:59:10;10.50;99.90
23114;DHT22;11726;50.122;8.832;2022-10-31T05:01:36;10.50;99.90
23114;DHT22;11726;50.122;8.832;2022-10-31T05:04:03;10.50;99.90
23114;DHT22;11726;50.122;8.832;2022-10-31T05:06:30;10.50;99.90
23114;DHT22;11726;50.122;8.832;2022-10-31T05:08:56;10.50;99.90
23114;DHT22;11726;50.122;8.832;2022-10-31T05:11:23;10.50;99.90
23114;DHT22;11726;50.122;8.832;2022-10-31T05:13:50;10.40;99.90
23114;DHT22;11726;50.122;8.832;2022-10-31T05:16:16;10.50;99.90
23114;DHT22;11726;50.122;8.832;2022-10-31T05:18:43;10.50;99.90
23114;DHT22;11726;50.122;8.832;2022-10-31T05:21:10;10.50;99.90
23114;DHT22;11726;50.122;8.832;2022-10-31T05:23:37;10.50;99.90
23114;DHT22;11726;50.122;8.832;2022-10-31T05:26:04;10.60;99.90
23114;DHT22;11726;50.122;8.832;2022-10-31T05:28:30;10.60;99.90
23114;DHT22;11726;50.122;8.832;2022-10-31T05:30:57;10.60;99.90
23114;DHT22;11726;50.122;8.832;2022-10-31T05:33:23;10.50;99.90
23114;DHT22;11726;50.122;8.832;2022-10-31T05:35:50;10.40;99.90
23114;DHT22;11726;50.122;8.832;2022-10-31T05:38:16;10.40;99.90
23114;DHT22;11726;50.122;8.832;2022-10-31T05:40:43;10.40;99.90
23114;DHT22;11726;50.122;8.832;2022-10-31T05:43:16;10.30;99.90
23114;DHT22;11726;50.122;8.832;2022-10-31T05:45:42;10.20;99.90
23114;DHT22;11726;50.122;8.832;2022-10-31T05:48:09;10.20;99.90
23114;DHT22;11726;50.122;8.832;2022-10-31T05:50:36;10.20;99.90
23114;DHT22;11726;50.122;8.832;2022-10-31T05:53:04;10.20;99.90
23114;DHT22;11726;50.122;8.832;2022-10-31T05:55:32;10.30;99.90
23114;DHT22;11726;50.122;8.832;2022-10-31T05:57:58;10.20;99.90
23114;DHT22;11726;50.122;8.832;2022-10-31T06:00:26;10.20;99.90
23114;DHT22;11726;50.122;8.832;2022-10-31T06:03:04;10.10;99.90
23114;DHT22;11726;50.122;8.832;2022-10-31T06:05:32;10.20;99.90
23114;DHT22;11726;50.122;8.832;2022-10-31T06:07:59;10.10;99.90
23114;DHT22;11726;50.122;8.832;2022-10-31T06:10:26;10.10;99.90
23114;DHT22;11726;50.122;8.832;2022-10-31T06:12:53;10.10;99.90
23114;DHT22;11726;50.122;8.832;2022-10-31T06:15:20;10.10;99.90
23114;DHT22;11726;50.122;8.832;2022-10-31T06:18:01;10.20;99.90
23114;DHT22;11726;50.122;8.832;2022-10-31T06:20:29;10.10;99.90
23114;DHT22;11726;50.122;8.832;2022-10-31T06:22:56;10.10;99.90
23114;DHT22;11726;50.122;8.832;2022-10-31T06:25:23;10.10;99.90
23114;DHT22;11726;50.122;8.832;2022-10-31T06:27:49;10.10;99.90
23114;DHT22;11726;50.122;8.832;2022-10-31T06:30:16;10.10;99.90
23114;DHT22;11726;50.122;8.832;2022-10-31T06:32:42;10.10;99.90
23114;DHT22;11726;50.122;8.832;2022-10-31T06:35:09;10.10;99.90
23114;DHT22;11726;50.122;8.832;2022-10-31T06:37:37;10.10;99.90
23114;DHT22;11726;50.122;8.832;2022-10-31T06:40:04;10.20;99.90
23114;DHT22;11726;50.122;8.832;2022-10-31T06:42:31;10.30;99.90
23114;DHT22;11726;50.122;8.832;2022-10-31T06:44:58;10.30;99.90
23114;DHT22;11726;50.122;8.832;2022-10-31T06:47:24;10.50;99.90
23114;DHT22;11726;50.122;8.832;2022-10-31T06:49:51;10.50;99.90
23114;DHT22;11726;50.122;8.832;2022-10-31T06:52:17;10.50;99.90
23114;DHT22;11726;50.122;8.832;2022-10-31T06:54:44;10.60;99.90
23114;DHT22;11726;50.122;8.832;2022-10-31T06:57:10;10.60;99.90
23114;DHT22;11726;50.122;8.832;2022-10-31T06:59:37;10.60;99.90
23114;DHT22;11726;50.122;8.832;2022-10-31T07:02:04;10.70;99.90
23114;DHT22;11726;50.122;8.832;2022-10-31T07:04:32;10.80;99.90
23114;DHT22;11726;50.122;8.832;2022-10-31T07:06:59;10.70;99.90
23114;DHT22;11726;50.122;8.832;2022-10-31T07:09:26;10.80;99.90
23114;DHT22;11726;50.122;8.832;2022-10-31T07:11:53;10.80;99.90
23114;DHT22;11726;50.122;8.832;2022-10-31T07:14:19;10.80;99.90
23114;DHT22;11726;50.122;8.832;2022-10-31T07:16:50;10.90;99.90
23114;DHT22;11726;50.122;8.832;2022-10-31T07:19:17;10.90;99.90
23114;DHT22;11726;50.122;8.832;2022-10-31T07:21:44;10.90;99.90
23114;DHT22;11726;50.122;8.832;2022-10-31T07:24:11;11.00;99.90
23114;DHT22;11726;50.122;8.832;2022-10-31T07:26:37;11.00;99.90
23114;DHT22;11726;50.122;8.832;2022-10-31T07:29:05;11.10;99.90
23114;DHT22;11726;50.122;8.832;2022-10-31T07:31:31;11.10;99.90
23114;DHT22;11726;50.122;8.832;2022-10-31T07:33:58;11.10;99.90
23114;DHT22;11726;50.122;8.832;2022-10-31T07:36:25;11.10;99.90
23114;DHT22;11726;50.122;8.832;2022-10-31T07:38:51;11.00;99.90
23114;DHT22;11726;50.122;8.832;2022-10-31T07:41:18;11.10;99.90
23114;DHT22;11726;50.122;8.832;2022-10-31T07:43:45;11.20;99.90
23114;DHT22;11726;50.122;8.832;2022-10-31T07:46:12;11.40;99.90
23114;DHT22;11726;50.122;8.832;2022-10-31T07:48:38;11.50;99.90
23114;DHT22;11726;50.122;8.832;2022-10-31T07:51:05;11.60;99.90
23114;DHT22;11726;50.122;8.832;2022-10-31T07:53:33;11.60;99.90
23114;DHT22;11726;50.122;8.832;2022-10-31T07:55:59;11.60;99.90
23114;DHT22;11726;50.122;8.832;2022-10-31T07:58:26;11.60;99.90
23114;DHT22;11726;50.122;8.832;2022-10-31T08:00:53;11.50;99.90
23114;DHT22;11726;50.122;8.832;2022-10-31T08:03:20;11.50;99.90
23114;DHT22;11726;50.122;8.832;2022-10-31T08:05:46;11.60;99.90
23114;DHT22;11726;50.122;8.832;2022-10-31T08:08:15;11.50;99.90
23114;DHT22;11726;50.122;8.832;2022-10-31T08:10:42;11.50;99.90
23114;DHT22;11726;50.122;8.832;2022-10-31T08:13:11;11.60;99.90
23114;DHT22;11726;50.122;8.832;2022-10-31T08:15:38;11.70;99.90
23114;DHT22;11726;50.122;8.832;2022-10-31T08:18:13;11.80;99.90
23114;DHT22;11726;50.122;8.832;2022-10-31T08:20:43;12.00;99.90
23114;DHT22;11726;50.122;8.832;2022-10-31T08:23:11;12.00;99.90
23114;DHT22;11726;50.122;8.832;2022-10-31T08:25:38;12.00;99.90
23114;DHT22;11726;50.122;8.832;2022-10-31T08:28:07;12.00;99.90
23114;DHT22;11726;50.122;8.832;2022-10-31T08:30:35;12.00;99.90
23114;DHT22;11726;50.122;8.832;2022-10-31T08:33:16;12.00;99.90
23114;DHT22;11726;50.122;8.832;2022-10-31T08:35:44;12.00;99.90
23114;DHT22;11726;50.122;8.832;2022-10-31T08:38:12;12.10;99.90
23114;DHT22;11726;50.122;8.832;2022-10-31T08:40:39;12.10;99.90
23114;DHT22;11726;50.122;8.832;2022-10-31T08:43:11;12.20;99.90
23114;DHT22;11726;50.122;8.832;2022-10-31T08:45:38;12.20;99.90
23114;DHT22;11726;50.122;8.832;2022-10-31T08:48:08;12.20;99.90
23114;DHT22;11726;50.122;8.832;2022-10-31T08:50:36;12.30;99.90
23114;DHT22;11726;50.122;8.832;2022-10-31T08:53:04;12.30;99.90
23114;DHT22;11726;50.122;8.832;2022-10-31T08:55:36;12.30;99.90
23114;DHT22;11726;50.122;8.832;2022-10-31T08:58:15;12.30;99.90
23114;DHT22;11726;50.122;8.832;2022-10-31T09:00:42;12.30;99.90
23114;DHT22;11726;50.122;8.832;2022-10-31T09:03:12;12.40;99.90
23114;DHT22;11726;50.122;8.832;2022-10-31T09:05:39;12.40;99.90
23114;DHT22;11726;50.122;8.832;2022-10-31T09:08:07;12.50;99.90
23114;DHT22;11726;50.122;8.832;2022-10-31T09:10:42;12.50;99.90
23114;DHT22;11726;50.122;8.832;2022-10-31T09:13:09;12.60;99.90
23114;DHT22;11726;50.122;8.832;2022-10-31T09:15:39;12.60;99.90
23114;DHT22;11726;50.122;8.832;2022-10-31T09:18:07;12.60;99.90
23114;DHT22;11726;50.122;8.832;2022-10-31T09:20:35;12.60;99.90
23114;DHT22;11726;50.122;8.832;2022-10-31T09:23:22;12.60;99.90
23114;DHT22;11726;50.122;8.832;2022-10-31T09:25:51;12.70;99.90
23114;DHT22;11726;50.122;8.832;2022-10-31T09:28:20;12.70;99.90
23114;DHT22;11726;50.122;8.832;2022-10-31T09:30:49;12.80;99.90
23114;DHT22;11726;50.122;8.832;2022-10-31T09:33:16;12.80;99.90
23114;DHT22;11726;50.122;8.832;2022-10-31T09:35:43;12.90;99.90
23114;DHT22;11726;50.122;8.832;2022-10-31T09:38:17;13.00;99.90
23114;DHT22;11726;50.122;8.832;2022-10-31T09:46:17;13.10;99.90
23114;DHT22;11726;50.122;8.832;2022-10-31T09:51:48;13.30;99.90
23114;DHT22;11726;50.122;8.832;2022-10-31T09:54:47;13.40;99.90
23114;DHT22;11726;50.122;8.832;2022-10-31T09:57:18;13.40;99.90
23114;DHT22;11726;50.122;8.832;2022-10-31T09:59:47;13.40;99.90
23114;DHT22;11726;50.122;8.832;2022-10-31T10:05:12;13.50;99.90
23114;DHT22;11726;50.122;8.832;2022-10-31T10:08:00;13.60;99.90
23114;DHT22;11726;50.122;8.832;2022-10-31T10:18:38;14.00;99.90
23114;DHT22;11726;50.122;8.832;2022-10-31T10:26:21;14.20;99.90
23114;DHT22;11726;50.122;8.832;2022-10-31T10:29:10;14.20;99.90
23114;DHT22;11726;50.122;8.832;2022-10-31T10:31:42;14.20;99.90
23114;DHT22;11726;50.122;8.832;2022-10-31T10:36:52;14.40;99.90
23114;DHT22;11726;50.122;8.832;2022-10-31T10:39:21;14.50;99.90
23114;DHT22;11726;50.122;8.832;2022-10-31T10:41:49;14.60;99.90
23114;DHT22;11726;50.122;8.832;2022-10-31T10:44:40;14.70;99.90
23114;DHT22;11726;50.122;8.832;2022-10-31T10:47:36;14.70;99.90
23114;DHT22;11726;50.122;8.832;2022-10-31T10:50:20;14.90;99.90
23114;DHT22;11726;50.122;8.832;2022-10-31T10:53:13;14.90;99.90
23114;DHT22;11726;50.122;8.832;2022-10-31T10:56:30;14.90;99.90
23114;DHT22;11726;50.122;8.832;2022-10-31T10:58:45;15.00;99.90
23114;DHT22;11726;50.122;8.832;2022-10-31T11:01:13;15.20;99.90
23114;DHT22;11726;50.122;8.832;2022-10-31T11:03:41;15.30;99.90
23114;DHT22;11726;50.122;8.832;2022-10-31T11:06:23;15.30;99.90
23114;DHT22;11726;50.122;8.832;2022-10-31T11:08:52;15.40;99.90
23114;DHT22;11726;50.122;8.832;2022-10-31T11:11:31;15.40;99.90
23114;DHT22;11726;50.122;8.832;2022-10-31T11:14:05;15.50;99.90
23114;DHT22;11726;50.122;8.832;2022-10-31T11:16:37;15.60;99.90
23114;DHT22;11726;50.122;8.832;2022-10-31T11:19:22;15.60;99.90
23114;DHT22;11726;50.122;8.832;2022-10-31T11:21:49;15.70;99.90
23114;DHT22;11726;50.122;8.832;2022-10-31T11:24:25;15.80;99.90
23114;DHT22;11726;50.122;8.832;2022-10-31T11:27:19;16.00;99.90
23114;DHT22;11726;50.122;8.832;2022-10-31T11:29:47;16.00;99.90
23114;DHT22;11726;50.122;8.832;2022-10-31T11:32:26;16.00;99.90
23114;DHT22;11726;50.122;8.832;2022-10-31T11:34:56;16.20;99.90
23114;DHT22;11726;50.122;8.832;2022-10-31T11:37:26;16.30;99.90
23114;DHT22;11726;50.122;8.832;2022-10-31T11:40:04;16.30;99.90
23114;DHT22;11726;50.122;8.832;2022-10-31T11:42:40;16.40;99.90
23114;DHT22;11726;50.122;8.832;2022-10-31T11:45:17;16.60;99.90
23114;DHT22;11726;50.122;8.832;2022-10-31T11:47:47;16.70;99.90
23114;DHT22;11726;50.122;8.832;2022-10-31T11:50:28;16.80;99.90
23114;DHT22;11726;50.122;8.832;2022-10-31T11:52:56;16.70;99.90
23114;DHT22;11726;50.122;8.832;2022-10-31T11:57:57;16.60;99.90
23114;DHT22;11726;50.122;8.832;2022-10-31T12:00:33;16.70;99.90
23114;DHT22;11726;50.122;8.832;2022-10-31T12:06:15;16.70;99.90
23114;DHT22;11726;50.122;8.832;2022-10-31T12:08:44;16.70;99.90
23114;DHT22;11726;50.122;8.832;2022-10-31T12:11:30;16.80;99.90
23114;DHT22;11726;50.122;8.832;2022-10-31T12:17:00;16.80;99.90
23114;DHT22;11726;50.122;8.832;2022-10-31T12:22:47;16.90;99.90
23114;DHT22;11726;50.122;8.832;2022-10-31T12:30:26;17.10;99.90
23114;DHT22;11726;50.122;8.832;2022-10-31T12:39:02;17.20;99.90
23114;DHT22;11726;50.122;8.832;2022-10-31T12:41:44;17.20;99.90
23114;DHT22;11726;50.122;8.832;2022-10-31T12:52:25;17.70;99.90
23114;DHT22;11726;50.122;8.832;2022-10-31T12:57:34;18.00;99.90
23114;DHT22;11726;50.122;8.832;2022-10-31T13:02:54;18.00;99.90
23114;DHT22;11726;50.122;8.832;2022-10-31T13:05:36;17.90;99.90
23114;DHT22;11726;50.122;8.832;2022-10-31T13:08:07;17.90;99.90
23114;DHT22;11726;50.122;8.832;2022-10-31T13:13:33;17.90;99.90
23114;DHT22;11726;50.122;8.832;2022-10-31T13:16:15;18.00;99.90
23114;DHT22;11726;50.122;8.832;2022-10-31T13:24:18;17.90;99.90
23114;DHT22;11726;50.122;8.832;2022-10-31T13:26:53;17.80;99.90
23114;DHT22;11726;50.122;8.832;2022-10-31T13:29:32;17.90;99.90
23114;DHT22;11726;50.122;8.832;2022-10-31T13:32:03;17.90;99.90
23114;DHT22;11726;50.122;8.832;2022-10-31T13:34:34;17.90;99.90
23114;DHT22;11726;50.122;8.832;2022-10-31T13:37:33;17.80;99.90
23114;DHT22;11726;50.122;8.832;2022-10-31T13:45:35;17.70;99.90
23114;DHT22;11726;50.122;8.832;2022-10-31T13:50:42;17.80;99.90
23114;DHT22;11726;50.122;8.832;2022-10-31T13:53:57;17.80;99.90
23114;DHT22;11726;50.122;8.832;2022-10-31T13:58:35;17.70;99.90
23114;DHT22;11726;50.122;8.832;2022-10-31T14:01:15;17.70;99.90
23114;DHT22;11726;50.122;8.832;2022-10-31T14:03:45;17.70;99.90
23114;DHT22;11726;50.122;8.832;2022-10-31T14:06:42;17.70;99.90
23114;DHT22;11726;50.122;8.832;2022-10-31T14:09:27;17.70;99.90
23114;DHT22;11726;50.122;8.832;2022-10-31T14:11:55;17.60;99.90
23114;DHT22;11726;50.122;8.832;2022-10-31T14:14:29;17.60;99.90
23114;DHT22;11726;50.122;8.832;2022-10-31T14:16:58;17.60;99.90
23114;DHT22;11726;50.122;8.832;2022-10-31T14:19:26;17.60;99.90
23114;DHT22;11726;50.122;8.832;2022-10-31T14:21:53;17.60;99.90
23114;DHT22;11726;50.122;8.832;2022-10-31T14:27:01;17.60;99.90
23114;DHT22;11726;50.122;8.832;2022-10-31T14:29:33;17.50;99.90
23114;DHT22;11726;50.122;8.832;2022-10-31T14:34:57;17.40;99.90
23114;DHT22;11726;50.122;8.832;2022-10-31T14:37:42;17.30;99.90
23114;DHT22;11726;50.122;8.832;2022-10-31T14:49:34;17.30;99.90
23114;DHT22;11726;50.122;8.832;2022-10-31T14:52:06;17.30;99.90
23114;DHT22;11726;50.122;8.832;2022-10-31T14:54:41;17.40;99.90
23114;DHT22;11726;50.122;8.832;2022-10-31T14:57:19;17.40;99.90
23114;DHT22;11726;50.122;8.832;2022-10-31T14:59:52;17.60;99.90
23114;DHT22;11726;50.122;8.832;2022-10-31T15:05:35;17.80;99.90
23114;DHT22;11726;50.122;8.832;2022-10-31T15:08:02;17.90;99.90
23114;DHT22;11726;50.122;8.832;2022-10-31T15:10:31;17.90;99.90
23114;DHT22;11726;50.122;8.832;2022-10-31T15:13:09;17.90;99.90
23114;DHT22;11726;50.122;8.832;2022-10-31T15:15:37;17.90;99.90
23114;DHT22;11726;50.122;8.832;2022-10-31T15:18:04;17.70;99.90
23114;DHT22;11726;50.122;8.832;2022-10-31T15:20:37;17.70;99.90
23114;DHT22;11726;50.122;8.832;2022-10-31T15:23:09;17.60;99.90
23114;DHT22;11726;50.122;8.832;2022-10-31T15:25:36;17.50;99.90
23114;DHT22;11726;50.122;8.832;2022-10-31T15:28:13;17.40;99.90
23114;DHT22;11726;50.122;8.832;2022-10-31T15:30:50;17.30;99.90
23114;DHT22;11726;50.122;8.832;2022-10-31T15:33:41;17.20;99.90
23114;DHT22;11726;50.122;8.832;2022-10-31T15:36:25;17.00;99.90
23114;DHT22;11726;50.122;8.832;2022-10-31T15:38:57;16.90;99.90
23114;DHT22;11726;50.122;8.832;2022-10-31T15:44:00;16.70;99.90
23114;DHT22;11726;50.122;8.832;2022-10-31T15:46:28;16.60;99.90
23114;DHT22;11726;50.122;8.832;2022-10-31T15:48:56;16.60;99.90
23114;DHT22;11726;50.122;8.832;2022-10-31T15:51:33;16.50;99.90
23114;DHT22;11726;50.122;8.832;2022-10-31T15:54:00;16.40;99.90
23114;DHT22;11726;50.122;8.832;2022-10-31T15:56:30;16.30;99.90
23114;DHT22;11726;50.122;8.832;2022-10-31T15:58:59;16.20;99.90
23114;DHT22;11726;50.122;8.832;2022-10-31T16:01:31;16.10;99.90
23114;DHT22;11726;50.122;8.832;2022-10-31T16:06:36;16.00;99.90
23114;DHT22;11726;50.122;8.832;2022-10-31T16:09:18;15.90;99.90
23114;DHT22;11726;50.122;8.832;2022-10-31T16:11:47;15.90;99.90
23114;DHT22;11726;50.122;8.832;2022-10-31T16:14:17;15.80;99.90
23114;DHT22;11726;50.122;8.832;2022-10-31T16:16:53;15.90;99.90
23114;DHT22;11726;50.122;8.832;2022-10-31T16:19:33;15.80;99.90
23114;DHT22;11726;50.122;8.832;2022-10-31T16:22:11;15.70;99.90
23114;DHT22;11726;50.122;8.832;2022-10-31T16:24:45;15.70;99.90
23114;DHT22;11726;50.122;8.832;2022-10-31T16:27:24;15.70;99.90
23114;DHT22;11726;50.122;8.832;2022-10-31T16:29:53;15.60;99.90
23114;DHT22;11726;50.122;8.832;2022-10-31T16:32:25;15.60;99.90
23114;DHT22;11726;50.122;8.832;2022-10-31T16:37:39;15.50;99.90
23114;DHT22;11726;50.122;8.832;2022-10-31T16:40:08;15.50;99.90
23114;DHT22;11726;50.122;8.832;2022-10-31T16:42:35;15.60;99.90
23114;DHT22;11726;50.122;8.832;2022-10-31T16:45:01;15.60;99.90
23114;DHT22;11726;50.122;8.832;2022-10-31T16:47:28;15.60;99.90
23114;DHT22;11726;50.122;8.832;2022-10-31T16:49:55;15.70;99.90
23114;DHT22;11726;50.122;8.832;2022-10-31T16:52:26;15.80;99.90
23114;DHT22;11726;50.122;8.832;2022-10-31T16:54:52;15.80;99.90
23114;DHT22;11726;50.122;8.832;2022-10-31T16:57:25;15.70;99.90
23114;DHT22;11726;50.122;8.832;2022-10-31T16:59:53;15.80;99.90
23114;DHT22;11726;50.122;8.832;2022-10-31T17:02:22;15.80;99.90
23114;DHT22;11726;50.122;8.832;2022-10-31T17:04:49;15.80;99.90
23114;DHT22;11726;50.122;8.832;2022-10-31T17:07:22;15.70;99.90
23114;DHT22;11726;50.122;8.832;2022-10-31T17:09:48;15.70;99.90
23114;DHT22;11726;50.122;8.832;2022-10-31T17:12:18;15.70;99.90
23114;DHT22;11726;50.122;8.832;2022-10-31T17:14:50;15.60;99.90
23114;DHT22;11726;50.122;8.832;2022-10-31T17:17:17;15.60;99.90
23114;DHT22;11726;50.122;8.832;2022-10-31T17:19:44;15.60;99.90
23114;DHT22;11726;50.122;8.832;2022-10-31T17:22:12;15.50;99.90
23114;DHT22;11726;50.122;8.832;2022-10-31T17:24:39;15.40;99.90
23114;DHT22;11726;50.122;8.832;2022-10-31T17:27:06;15.40;99.90
23114;DHT22;11726;50.122;8.832;2022-10-31T17:29:33;15.30;99.90
23114;DHT22;11726;50.122;8.832;2022-10-31T17:32:01;15.20;99.90
23114;DHT22;11726;50.122;8.832;2022-10-31T17:34:29;15.30;99.90
23114;DHT22;11726;50.122;8.832;2022-10-31T17:36:56;15.30;99.90
23114;DHT22;11726;50.122;8.832;2022-10-31T17:39:23;15.30;99.90
23114;DHT22;11726;50.122;8.832;2022-10-31T17:41:50;15.30;99.90
23114;DHT22;11726;50.122;8.832;2022-10-31T17:44:17;15.30;99.90
23114;DHT22;11726;50.122;8.832;2022-10-31T17:46:44;15.20;99.90
23114;DHT22;11726;50.122;8.832;2022-10-31T17:49:11;15.20;99.90
23114;DHT22;11726;50.122;8.832;2022-10-31T17:51:38;15.20;99.90
23114;DHT22;11726;50.122;8.832;2022-10-31T17:54:04;15.20;99.90
23114;DHT22;11726;50.122;8.832;2022-10-31T17:56:32;15.30;99.90
23114;DHT22;11726;50.122;8.832;2022-10-31T17:58:59;15.20;99.90
23114;DHT22;11726;50.122;8.832;2022-10-31T18:01:25;15.10;99.90
23114;DHT22;11726;50.122;8.832;2022-10-31T18:03:52;15.10;99.90